sensor_id;sensor_type;location;lat;lon;timestamp;P1;durP1;ratioP1;P2;durP2;ratioP2
45762;SDS011;37512;52.408;13.356;2022-09-12T00:01:55;6.72;;;4.20;;
45762;SDS011;37512;52.408;13.356;2022-09-12T00:05:57;5.57;;;4.35;;
45762;SDS011;37512;52.408;13.356;2022-09-12T00:09:58;7.22;;;4.93;;
45762;SDS011;37512;52.408;13.356;2022-09-12T00:14:00;5.60;;;4.45;;
45762;SDS011;37512;52.408;13.356;2022-09-12T00:18:01;5.03;;;4.50;;
45762;SDS011;37512;52.408;13.356;2022-09-12T00:22:03;8.95;;;4.75;;
45762;SDS011;37512;52.408;13.356;2022-09-12T00:26:05;6.13;;;4.72;;
45762;SDS011;37512;52.408;13.356;2022-09-12T00:30:07;5.10;;;4.25;;
45762;SDS011;37512;52.408;13.356;2022-09-12T00:34:08;7.05;;;4.25;;
45762;SDS011;37512;52.408;13.356;2022-09-12T00:38:13;4.65;;;3.72;;
45762;SDS011;37512;52.408;13.356;2022-09-12T00:42:16;5.13;;;3.75;;
45762;SDS011;37512;52.408;13.356;2022-09-12T00:46:21;5.32;;;3.50;;
45762;SDS011;37512;52.408;13.356;2022-09-12T00:50:30;5.13;;;3.60;;
45762;SDS011;37512;52.408;13.356;2022-09-12T00:54:34;4.93;;;3.53;;
45762;SDS011;37512;52.408;13.356;2022-09-12T00:58:59;4.70;;;3.67;;
45762;SDS011;37512;52.408;13.356;2022-09-12T01:03:09;4.82;;;4.05;;
45762;SDS011;37512;52.408;13.356;2022-09-12T01:07:16;7.90;;;3.80;;
45762;SDS011;37512;52.408;13.356;2022-09-12T01:11:17;4.93;;;3.53;;
45762;SDS011;37512;52.408;13.356;2022-09-12T01:15:20;5.07;;;3.35;;
45762;SDS011;37512;52.408;13.356;2022-09-12T01:37:51;5.18;;;3.40;;
45762;SDS011;37512;52.408;13.356;2022-09-12T01:41:58;4.43;;;3.30;;
45762;SDS011;37512;52.408;13.356;2022-09-12T01:46:20;4.30;;;3.53;;
45762;SDS011;37512;52.408;13.356;2022-09-12T01:50:29;3.97;;;3.28;;
45762;SDS011;37512;52.408;13.356;2022-09-12T01:54:41;4.43;;;3.47;;
45762;SDS011;37512;52.408;13.356;2022-09-12T01:58:59;5.72;;;3.22;;
45762;SDS011;37512;52.408;13.356;2022-09-12T02:03:13;5.03;;;3.00;;
45762;SDS011;37512;52.408;13.356;2022-09-12T02:07:22;4.30;;;3.08;;
45762;SDS011;37512;52.408;13.356;2022-09-12T02:11:31;3.58;;;3.28;;
45762;SDS011;37512;52.408;13.356;2022-09-12T02:15:46;4.38;;;2.80;;
45762;SDS011;37512;52.408;13.356;2022-09-12T02:20:12;3.97;;;2.88;;
45762;SDS011;37512;52.408;13.356;2022-09-12T02:24:38;4.13;;;3.13;;
45762;SDS011;37512;52.408;13.356;2022-09-12T02:28:42;5.05;;;3.28;;
45762;SDS011;37512;52.408;13.356;2022-09-12T02:32:51;5.07;;;3.70;;
45762;SDS011;37512;52.408;13.356;2022-09-12T02:37:06;4.18;;;3.22;;
45762;SDS011;37512;52.408;13.356;2022-09-12T02:41:23;4.78;;;3.67;;
45762;SDS011;37512;52.408;13.356;2022-09-12T02:45:25;3.30;;;2.72;;
45762;SDS011;37512;52.408;13.356;2022-09-12T02:49:26;7.63;;;3.90;;
45762;SDS011;37512;52.408;13.356;2022-09-12T02:53:28;3.72;;;3.33;;
45762;SDS011;37512;52.408;13.356;2022-09-12T02:57:30;4.28;;;3.22;;
45762;SDS011;37512;52.408;13.356;2022-09-12T03:06:02;4.13;;;3.22;;
45762;SDS011;37512;52.408;13.356;2022-09-12T03:15:00;4.82;;;3.65;;
45762;SDS011;37512;52.408;13.356;2022-09-12T03:23:52;5.05;;;3.58;;
45762;SDS011;37512;52.408;13.356;2022-09-12T03:28:04;5.40;;;3.60;;
45762;SDS011;37512;52.408;13.356;2022-09-12T03:32:09;4.13;;;3.58;;
45762;SDS011;37512;52.408;13.356;2022-09-12T03:36:29;4.72;;;3.53;;
45762;SDS011;37512;52.408;13.356;2022-09-12T03:44:32;4.90;;;3.33;;
45762;SDS011;37512;52.408;13.356;2022-09-12T03:48:33;7.38;;;3.60;;
45762;SDS011;37512;52.408;13.356;2022-09-12T03:52:35;12.73;;;4.28;;
45762;SDS011;37512;52.408;13.356;2022-09-12T03:56:36;7.13;;;3.50;;
45762;SDS011;37512;52.408;13.356;2022-09-12T04:00:40;6.07;;;3.65;;
45762;SDS011;37512;52.408;13.356;2022-09-12T04:04:43;4.10;;;3.20;;
45762;SDS011;37512;52.408;13.356;2022-09-12T04:08:49;4.35;;;3.35;;
45762;SDS011;37512;52.408;13.356;2022-09-12T04:12:52;5.75;;;3.97;;
45762;SDS011;37512;52.408;13.356;2022-09-12T04:16:53;6.10;;;3.72;;
45762;SDS011;37512;52.408;13.356;2022-09-12T04:20:55;7.53;;;4.00;;
45762;SDS011;37512;52.408;13.356;2022-09-12T04:24:56;5.07;;;4.22;;
45762;SDS011;37512;52.408;13.356;2022-09-12T04:28:58;5.90;;;4.28;;
45762;SDS011;37512;52.408;13.356;2022-09-12T04:32:59;5.68;;;4.40;;
45762;SDS011;37512;52.408;13.356;2022-09-12T04:37:07;5.82;;;4.40;;
45762;SDS011;37512;52.408;13.356;2022-09-12T04:41:19;9.30;;;4.47;;
45762;SDS011;37512;52.408;13.356;2022-09-12T04:45:25;5.43;;;4.07;;
45762;SDS011;37512;52.408;13.356;2022-09-12T04:49:26;5.45;;;4.07;;
45762;SDS011;37512;52.408;13.356;2022-09-12T04:53:27;7.15;;;3.95;;
45762;SDS011;37512;52.408;13.356;2022-09-12T04:57:29;5.03;;;4.00;;
45762;SDS011;37512;52.408;13.356;2022-09-12T05:01:30;6.13;;;4.13;;
45762;SDS011;37512;52.408;13.356;2022-09-12T05:05:32;7.90;;;4.13;;
45762;SDS011;37512;52.408;13.356;2022-09-12T05:09:33;7.43;;;3.95;;
45762;SDS011;37512;52.408;13.356;2022-09-12T05:13:35;5.43;;;3.55;;
45762;SDS011;37512;52.408;13.356;2022-09-12T05:17:37;4.28;;;3.45;;
45762;SDS011;37512;52.408;13.356;2022-09-12T05:21:38;6.28;;;3.58;;
45762;SDS011;37512;52.408;13.356;2022-09-12T05:25:46;5.10;;;4.22;;
45762;SDS011;37512;52.408;13.356;2022-09-12T05:29:49;5.90;;;4.50;;
45762;SDS011;37512;52.408;13.356;2022-09-12T05:33:52;5.25;;;4.25;;
45762;SDS011;37512;52.408;13.356;2022-09-12T05:37:55;5.47;;;4.60;;
45762;SDS011;37512;52.408;13.356;2022-09-12T05:41:56;7.00;;;4.75;;
45762;SDS011;37512;52.408;13.356;2022-09-12T05:46:02;5.80;;;4.35;;
45762;SDS011;37512;52.408;13.356;2022-09-12T05:50:09;7.45;;;5.20;;
45762;SDS011;37512;52.408;13.356;2022-09-12T05:54:12;7.65;;;5.75;;
45762;SDS011;37512;52.408;13.356;2022-09-12T05:58:17;7.38;;;5.47;;
45762;SDS011;37512;52.408;13.356;2022-09-12T06:02:20;8.02;;;6.25;;
45762;SDS011;37512;52.408;13.356;2022-09-12T06:06:23;8.93;;;6.07;;
45762;SDS011;37512;52.408;13.356;2022-09-12T06:10:25;7.35;;;5.60;;
45762;SDS011;37512;52.408;13.356;2022-09-12T06:14:26;6.80;;;5.20;;
45762;SDS011;37512;52.408;13.356;2022-09-12T06:18:28;9.00;;;5.50;;
45762;SDS011;37512;52.408;13.356;2022-09-12T06:22:30;6.60;;;5.65;;
45762;SDS011;37512;52.408;13.356;2022-09-12T06:26:31;7.78;;;5.15;;
45762;SDS011;37512;52.408;13.356;2022-09-12T06:30:33;6.22;;;5.30;;
45762;SDS011;37512;52.408;13.356;2022-09-12T06:34:35;6.78;;;5.70;;
45762;SDS011;37512;52.408;13.356;2022-09-12T06:38:36;6.60;;;5.85;;
45762;SDS011;37512;52.408;13.356;2022-09-12T06:42:38;6.40;;;5.32;;
45762;SDS011;37512;52.408;13.356;2022-09-12T06:46:40;9.88;;;4.90;;
45762;SDS011;37512;52.408;13.356;2022-09-12T06:50:42;6.38;;;4.85;;
45762;SDS011;37512;52.408;13.356;2022-09-12T06:54:43;9.30;;;5.75;;
45762;SDS011;37512;52.408;13.356;2022-09-12T06:58:45;6.43;;;4.75;;
45762;SDS011;37512;52.408;13.356;2022-09-12T07:02:50;7.43;;;5.30;;
45762;SDS011;37512;52.408;13.356;2022-09-12T07:06:54;6.63;;;4.95;;
45762;SDS011;37512;52.408;13.356;2022-09-12T07:10:55;11.20;;;6.25;;
45762;SDS011;37512;52.408;13.356;2022-09-12T07:14:59;9.75;;;5.30;;
45762;SDS011;37512;52.408;13.356;2022-09-12T07:19:02;6.55;;;4.28;;
45762;SDS011;37512;52.408;13.356;2022-09-12T07:23:05;6.18;;;3.92;;
45762;SDS011;37512;52.408;13.356;2022-09-12T07:27:07;4.72;;;3.83;;
45762;SDS011;37512;52.408;13.356;2022-09-12T07:31:13;6.53;;;4.32;;
45762;SDS011;37512;52.408;13.356;2022-09-12T07:35:17;6.90;;;3.35;;
45762;SDS011;37512;52.408;13.356;2022-09-12T07:39:19;3.78;;;3.13;;
45762;SDS011;37512;52.408;13.356;2022-09-12T07:43:21;3.30;;;2.40;;
45762;SDS011;37512;52.408;13.356;2022-09-12T07:47:23;6.88;;;2.53;;
45762;SDS011;37512;52.408;13.356;2022-09-12T07:51:25;3.72;;;2.40;;
45762;SDS011;37512;52.408;13.356;2022-09-12T07:55:27;2.67;;;1.88;;
45762;SDS011;37512;52.408;13.356;2022-09-12T07:59:28;2.25;;;1.73;;
45762;SDS011;37512;52.408;13.356;2022-09-12T08:03:55;2.28;;;1.67;;
45762;SDS011;37512;52.408;13.356;2022-09-12T08:07:58;2.78;;;1.75;;
45762;SDS011;37512;52.408;13.356;2022-09-12T08:11:59;2.00;;;1.70;;
45762;SDS011;37512;52.408;13.356;2022-09-12T08:16:02;3.13;;;1.38;;
45762;SDS011;37512;52.408;13.356;2022-09-12T08:20:08;2.58;;;1.15;;
45762;SDS011;37512;52.408;13.356;2022-09-12T08:24:10;3.58;;;1.30;;
45762;SDS011;37512;52.408;13.356;2022-09-12T08:28:12;2.58;;;1.40;;
45762;SDS011;37512;52.408;13.356;2022-09-12T08:32:13;2.67;;;1.17;;
45762;SDS011;37512;52.408;13.356;2022-09-12T08:36:16;2.15;;;1.00;;
45762;SDS011;37512;52.408;13.356;2022-09-12T08:40:23;4.07;;;1.35;;
45762;SDS011;37512;52.408;13.356;2022-09-12T08:44:37;1.70;;;0.95;;
45762;SDS011;37512;52.408;13.356;2022-09-12T08:48:55;2.65;;;1.42;;
45762;SDS011;37512;52.408;13.356;2022-09-12T08:53:02;1.88;;;1.27;;
45762;SDS011;37512;52.408;13.356;2022-09-12T08:57:10;4.25;;;1.35;;
45762;SDS011;37512;52.408;13.356;2022-09-12T09:10:15;1.92;;;1.30;;
45762;SDS011;37512;52.408;13.356;2022-09-12T09:18:49;1.65;;;1.20;;
45762;SDS011;37512;52.408;13.356;2022-09-12T09:22:59;1.73;;;1.30;;
45762;SDS011;37512;52.408;13.356;2022-09-12T09:27:24;4.65;;;1.50;;
45762;SDS011;37512;52.408;13.356;2022-09-12T09:31:41;3.47;;;1.30;;
45762;SDS011;37512;52.408;13.356;2022-09-12T09:35:55;1.88;;;1.10;;
45762;SDS011;37512;52.408;13.356;2022-09-12T09:44:15;2.72;;;0.93;;
45762;SDS011;37512;52.408;13.356;2022-09-12T09:48:27;4.28;;;1.20;;
45762;SDS011;37512;52.408;13.356;2022-09-12T09:52:35;4.18;;;1.55;;
45762;SDS011;37512;52.408;13.356;2022-09-12T09:56:38;1.98;;;1.20;;
45762;SDS011;37512;52.408;13.356;2022-09-12T10:00:42;1.83;;;1.25;;
45762;SDS011;37512;52.408;13.356;2022-09-12T10:05:02;3.63;;;1.00;;
45762;SDS011;37512;52.408;13.356;2022-09-12T10:09:16;2.40;;;1.50;;
45762;SDS011;37512;52.408;13.356;2022-09-12T10:13:23;3.80;;;1.30;;
45762;SDS011;37512;52.408;13.356;2022-09-12T10:17:40;2.67;;;1.83;;
45762;SDS011;37512;52.408;13.356;2022-09-12T10:21:49;1.23;;;0.90;;
45762;SDS011;37512;52.408;13.356;2022-09-12T10:25:53;5.07;;;1.27;;
45762;SDS011;37512;52.408;13.356;2022-09-12T10:33:59;2.47;;;1.00;;
45762;SDS011;37512;52.408;13.356;2022-09-12T10:38:05;2.67;;;1.90;;
45762;SDS011;37512;52.408;13.356;2022-09-12T10:42:16;5.32;;;1.48;;
45762;SDS011;37512;52.408;13.356;2022-09-12T10:46:38;4.60;;;1.60;;
45762;SDS011;37512;52.408;13.356;2022-09-12T10:50:41;2.00;;;1.13;;
45762;SDS011;37512;52.408;13.356;2022-09-12T10:54:43;2.80;;;1.20;;
45762;SDS011;37512;52.408;13.356;2022-09-12T11:02:57;0.95;;;0.68;;
45762;SDS011;37512;52.408;13.356;2022-09-12T11:07:32;2.72;;;0.70;;
45762;SDS011;37512;52.408;13.356;2022-09-12T11:11:44;2.25;;;1.00;;
45762;SDS011;37512;52.408;13.356;2022-09-12T11:24:48;1.60;;;1.15;;
45762;SDS011;37512;52.408;13.356;2022-09-12T11:42:10;1.27;;;0.88;;
45762;SDS011;37512;52.408;13.356;2022-09-12T11:46:24;1.92;;;0.93;;
45762;SDS011;37512;52.408;13.356;2022-09-12T11:50:31;1.10;;;0.73;;
45762;SDS011;37512;52.408;13.356;2022-09-12T11:58:58;2.75;;;1.30;;
45762;SDS011;37512;52.408;13.356;2022-09-12T12:07:08;1.58;;;1.10;;
45762;SDS011;37512;52.408;13.356;2022-09-12T12:11:12;1.05;;;0.82;;
45762;SDS011;37512;52.408;13.356;2022-09-12T12:15:15;1.55;;;0.93;;
45762;SDS011;37512;52.408;13.356;2022-09-12T12:23:26;2.20;;;1.45;;
45762;SDS011;37512;52.408;13.356;2022-09-12T12:36:10;1.70;;;0.80;;
45762;SDS011;37512;52.408;13.356;2022-09-12T12:40:30;3.85;;;0.80;;
45762;SDS011;37512;52.408;13.356;2022-09-12T12:48:48;1.35;;;1.00;;
45762;SDS011;37512;52.408;13.356;2022-09-12T12:57:24;1.02;;;0.82;;
45762;SDS011;37512;52.408;13.356;2022-09-12T13:01:28;1.80;;;0.80;;
45762;SDS011;37512;52.408;13.356;2022-09-12T13:05:41;0.75;;;0.70;;
45762;SDS011;37512;52.408;13.356;2022-09-12T13:09:46;1.60;;;0.90;;
45762;SDS011;37512;52.408;13.356;2022-09-12T13:13:56;4.57;;;1.20;;
45762;SDS011;37512;52.408;13.356;2022-09-12T13:18:01;3.28;;;0.90;;
45762;SDS011;37512;52.408;13.356;2022-09-12T13:22:10;1.15;;;0.88;;
45762;SDS011;37512;52.408;13.356;2022-09-12T13:26:13;2.10;;;1.15;;
45762;SDS011;37512;52.408;13.356;2022-09-12T13:30:22;1.55;;;1.00;;
45762;SDS011;37512;52.408;13.356;2022-09-12T13:34:28;1.05;;;0.82;;
45762;SDS011;37512;52.408;13.356;2022-09-12T13:43:08;2.00;;;1.10;;
45762;SDS011;37512;52.408;13.356;2022-09-12T13:47:16;4.75;;;1.35;;
45762;SDS011;37512;52.408;13.356;2022-09-12T13:51:28;1.73;;;1.13;;
45762;SDS011;37512;52.408;13.356;2022-09-12T13:55:35;2.92;;;1.05;;
45762;SDS011;37512;52.408;13.356;2022-09-12T13:59:43;1.60;;;1.00;;
45762;SDS011;37512;52.408;13.356;2022-09-12T14:03:52;2.53;;;0.93;;
45762;SDS011;37512;52.408;13.356;2022-09-12T14:08:14;2.22;;;1.05;;
45762;SDS011;37512;52.408;13.356;2022-09-12T14:12:30;1.85;;;0.90;;
45762;SDS011;37512;52.408;13.356;2022-09-12T14:16:37;2.45;;;1.20;;
45762;SDS011;37512;52.408;13.356;2022-09-12T14:20:40;3.00;;;1.52;;
45762;SDS011;37512;52.408;13.356;2022-09-12T14:24:48;3.53;;;1.30;;
45762;SDS011;37512;52.408;13.356;2022-09-12T14:28:51;3.55;;;0.70;;
45762;SDS011;37512;52.408;13.356;2022-09-12T14:37:04;1.30;;;0.90;;
45762;SDS011;37512;52.408;13.356;2022-09-12T14:41:07;2.35;;;1.30;;
45762;SDS011;37512;52.408;13.356;2022-09-12T14:45:22;1.75;;;1.10;;
45762;SDS011;37512;52.408;13.356;2022-09-12T14:53:34;1.30;;;0.90;;
45762;SDS011;37512;52.408;13.356;2022-09-12T14:57:38;1.83;;;1.00;;
45762;SDS011;37512;52.408;13.356;2022-09-12T15:01:40;1.17;;;1.00;;
45762;SDS011;37512;52.408;13.356;2022-09-12T15:05:48;3.70;;;1.42;;
45762;SDS011;37512;52.408;13.356;2022-09-12T15:09:50;1.57;;;0.93;;
45762;SDS011;37512;52.408;13.356;2022-09-12T15:13:52;1.08;;;0.85;;
45762;SDS011;37512;52.408;13.356;2022-09-12T15:17:54;1.73;;;0.98;;
45762;SDS011;37512;52.408;13.356;2022-09-12T15:21:56;4.68;;;1.15;;
45762;SDS011;37512;52.408;13.356;2022-09-12T15:25:57;1.70;;;1.23;;
45762;SDS011;37512;52.408;13.356;2022-09-12T15:29:59;1.30;;;1.00;;
45762;SDS011;37512;52.408;13.356;2022-09-12T15:34:01;2.08;;;1.20;;
45762;SDS011;37512;52.408;13.356;2022-09-12T15:38:03;2.60;;;1.35;;
45762;SDS011;37512;52.408;13.356;2022-09-12T15:42:04;3.03;;;1.27;;
45762;SDS011;37512;52.408;13.356;2022-09-12T15:46:08;8.32;;;1.30;;
45762;SDS011;37512;52.408;13.356;2022-09-12T15:50:11;4.07;;;1.35;;
45762;SDS011;37512;52.408;13.356;2022-09-12T15:54:13;2.53;;;1.25;;
45762;SDS011;37512;52.408;13.356;2022-09-12T15:58:17;2.85;;;1.13;;
45762;SDS011;37512;52.408;13.356;2022-09-12T16:02:18;2.15;;;1.00;;
45762;SDS011;37512;52.408;13.356;2022-09-12T16:06:20;2.08;;;1.10;;
45762;SDS011;37512;52.408;13.356;2022-09-12T16:10:24;2.95;;;1.35;;
45762;SDS011;37512;52.408;13.356;2022-09-12T16:14:27;6.28;;;1.80;;
45762;SDS011;37512;52.408;13.356;2022-09-12T16:18:29;1.92;;;1.25;;
45762;SDS011;37512;52.408;13.356;2022-09-12T16:22:30;2.00;;;1.52;;
45762;SDS011;37512;52.408;13.356;2022-09-12T16:26:32;2.95;;;1.98;;
45762;SDS011;37512;52.408;13.356;2022-09-12T16:30:34;3.10;;;1.55;;
45762;SDS011;37512;52.408;13.356;2022-09-12T16:34:35;3.28;;;1.80;;
45762;SDS011;37512;52.408;13.356;2022-09-12T16:38:40;4.18;;;1.50;;
45762;SDS011;37512;52.408;13.356;2022-09-12T16:42:46;2.58;;;1.67;;
45762;SDS011;37512;52.408;13.356;2022-09-12T16:46:48;6.40;;;3.60;;
45762;SDS011;37512;52.408;13.356;2022-09-12T16:50:55;5.25;;;2.00;;
45762;SDS011;37512;52.408;13.356;2022-09-12T16:54:57;2.45;;;1.77;;
45762;SDS011;37512;52.408;13.356;2022-09-12T16:58:59;3.90;;;1.65;;
45762;SDS011;37512;52.408;13.356;2022-09-12T17:03:00;11.05;;;8.13;;
45762;SDS011;37512;52.408;13.356;2022-09-12T17:07:02;3.33;;;1.77;;
45762;SDS011;37512;52.408;13.356;2022-09-12T17:11:04;2.42;;;1.30;;
45762;SDS011;37512;52.408;13.356;2022-09-12T17:15:07;3.17;;;1.45;;
45762;SDS011;37512;52.408;13.356;2022-09-12T17:19:22;7.65;;;1.80;;
45762;SDS011;37512;52.408;13.356;2022-09-12T17:23:30;1.50;;;1.15;;
45762;SDS011;37512;52.408;13.356;2022-09-12T17:27:31;3.08;;;1.50;;
45762;SDS011;37512;52.408;13.356;2022-09-12T17:31:33;5.25;;;1.65;;
45762;SDS011;37512;52.408;13.356;2022-09-12T17:35:35;3.42;;;1.90;;
45762;SDS011;37512;52.408;13.356;2022-09-12T17:39:38;1.92;;;1.58;;
45762;SDS011;37512;52.408;13.356;2022-09-12T17:43:39;3.55;;;1.60;;
45762;SDS011;37512;52.408;13.356;2022-09-12T17:47:41;3.95;;;1.42;;
45762;SDS011;37512;52.408;13.356;2022-09-12T17:51:43;5.60;;;1.60;;
45762;SDS011;37512;52.408;13.356;2022-09-12T17:55:45;1.85;;;1.50;;
45762;SDS011;37512;52.408;13.356;2022-09-12T17:59:46;1.98;;;1.40;;
45762;SDS011;37512;52.408;13.356;2022-09-12T18:03:48;2.60;;;1.80;;
45762;SDS011;37512;52.408;13.356;2022-09-12T18:07:50;3.42;;;1.70;;
45762;SDS011;37512;52.408;13.356;2022-09-12T18:11:52;3.08;;;1.75;;
45762;SDS011;37512;52.408;13.356;2022-09-12T18:15:54;3.33;;;1.90;;
45762;SDS011;37512;52.408;13.356;2022-09-12T18:20:02;3.73;;;2.10;;
45762;SDS011;37512;52.408;13.356;2022-09-12T18:24:04;2.90;;;2.15;;
45762;SDS011;37512;52.408;13.356;2022-09-12T18:28:06;5.40;;;2.25;;
45762;SDS011;37512;52.408;13.356;2022-09-12T18:32:09;3.22;;;1.90;;
45762;SDS011;37512;52.408;13.356;2022-09-12T18:36:11;3.50;;;2.40;;
45762;SDS011;37512;52.408;13.356;2022-09-12T18:40:13;4.60;;;2.50;;
45762;SDS011;37512;52.408;13.356;2022-09-12T18:44:15;3.70;;;2.20;;
45762;SDS011;37512;52.408;13.356;2022-09-12T18:48:17;5.25;;;2.35;;
45762;SDS011;37512;52.408;13.356;2022-09-12T18:52:18;3.70;;;2.67;;
45762;SDS011;37512;52.408;13.356;2022-09-12T18:56:21;6.65;;;3.00;;
45762;SDS011;37512;52.408;13.356;2022-09-12T19:00:23;3.88;;;2.60;;
45762;SDS011;37512;52.408;13.356;2022-09-12T19:04:25;4.60;;;2.53;;
45762;SDS011;37512;52.408;13.356;2022-09-12T19:08:26;6.15;;;2.97;;
45762;SDS011;37512;52.408;13.356;2022-09-12T19:12:37;6.43;;;2.83;;
45762;SDS011;37512;52.408;13.356;2022-09-12T19:16:38;6.70;;;4.28;;
45762;SDS011;37512;52.408;13.356;2022-09-12T19:20:40;4.50;;;2.72;;
45762;SDS011;37512;52.408;13.356;2022-09-12T19:24:42;6.07;;;3.05;;
45762;SDS011;37512;52.408;13.356;2022-09-12T19:28:44;6.50;;;4.18;;
45762;SDS011;37512;52.408;13.356;2022-09-12T19:32:45;4.75;;;3.10;;
45762;SDS011;37512;52.408;13.356;2022-09-12T19:36:47;6.10;;;3.55;;
45762;SDS011;37512;52.408;13.356;2022-09-12T19:40:55;7.65;;;4.65;;
45762;SDS011;37512;52.408;13.356;2022-09-12T19:44:57;6.00;;;3.90;;
45762;SDS011;37512;52.408;13.356;2022-09-12T19:49:05;3.72;;;2.90;;
45762;SDS011;37512;52.408;13.356;2022-09-12T19:53:07;4.00;;;2.80;;
45762;SDS011;37512;52.408;13.356;2022-09-12T19:57:08;5.38;;;2.70;;
45762;SDS011;37512;52.408;13.356;2022-09-12T20:01:11;3.15;;;2.22;;
45762;SDS011;37512;52.408;13.356;2022-09-12T20:05:18;4.28;;;2.53;;
45762;SDS011;37512;52.408;13.356;2022-09-12T20:09:20;4.63;;;3.40;;
45762;SDS011;37512;52.408;13.356;2022-09-12T20:13:21;8.38;;;5.28;;
45762;SDS011;37512;52.408;13.356;2022-09-12T20:17:23;6.68;;;3.88;;
45762;SDS011;37512;52.408;13.356;2022-09-12T20:21:25;6.25;;;4.15;;
45762;SDS011;37512;52.408;13.356;2022-09-12T20:25:32;4.57;;;3.10;;
45762;SDS011;37512;52.408;13.356;2022-09-12T20:29:33;3.50;;;2.75;;
45762;SDS011;37512;52.408;13.356;2022-09-12T20:33:35;4.60;;;3.08;;
45762;SDS011;37512;52.408;13.356;2022-09-12T20:37:37;4.82;;;2.50;;
45762;SDS011;37512;52.408;13.356;2022-09-12T20:41:40;4.80;;;2.85;;
45762;SDS011;37512;52.408;13.356;2022-09-12T20:45:42;4.75;;;2.67;;
45762;SDS011;37512;52.408;13.356;2022-09-12T20:49:44;5.88;;;3.15;;
45762;SDS011;37512;52.408;13.356;2022-09-12T20:53:53;6.50;;;3.28;;
45762;SDS011;37512;52.408;13.356;2022-09-12T20:57:54;5.97;;;3.83;;
45762;SDS011;37512;52.408;13.356;2022-09-12T21:01:56;5.93;;;3.53;;
45762;SDS011;37512;52.408;13.356;2022-09-12T21:05:57;4.78;;;3.50;;
45762;SDS011;37512;52.408;13.356;2022-09-12T21:09:59;7.63;;;3.83;;
45762;SDS011;37512;52.408;13.356;2022-09-12T21:14:00;7.72;;;5.15;;
45762;SDS011;37512;52.408;13.356;2022-09-12T21:18:02;5.28;;;3.03;;
45762;SDS011;37512;52.408;13.356;2022-09-12T21:22:04;4.65;;;3.15;;
45762;SDS011;37512;52.408;13.356;2022-09-12T21:26:05;3.92;;;3.15;;
45762;SDS011;37512;52.408;13.356;2022-09-12T21:30:07;4.90;;;3.40;;
45762;SDS011;37512;52.408;13.356;2022-09-12T21:34:09;8.48;;;4.78;;
45762;SDS011;37512;52.408;13.356;2022-09-12T21:38:11;7.80;;;5.60;;
45762;SDS011;37512;52.408;13.356;2022-09-12T21:42:12;7.40;;;3.70;;
45762;SDS011;37512;52.408;13.356;2022-09-12T21:46:13;6.88;;;4.93;;
45762;SDS011;37512;52.408;13.356;2022-09-12T21:50:15;4.05;;;3.03;;
45762;SDS011;37512;52.408;13.356;2022-09-12T21:54:16;7.35;;;3.00;;
45762;SDS011;37512;52.408;13.356;2022-09-12T21:58:18;3.22;;;2.60;;
45762;SDS011;37512;52.408;13.356;2022-09-12T22:02:19;4.03;;;2.88;;
45762;SDS011;37512;52.408;13.356;2022-09-12T22:06:23;3.22;;;2.33;;
45762;SDS011;37512;52.408;13.356;2022-09-12T22:10:24;4.80;;;3.10;;
45762;SDS011;37512;52.408;13.356;2022-09-12T22:14:27;3.22;;;2.80;;
45762;SDS011;37512;52.408;13.356;2022-09-12T22:18:33;3.92;;;2.67;;
45762;SDS011;37512;52.408;13.356;2022-09-12T22:22:36;28.98;;;18.15;;
45762;SDS011;37512;52.408;13.356;2022-09-12T22:26:56;6.22;;;4.68;;
45762;SDS011;37512;52.408;13.356;2022-09-12T22:30:59;4.20;;;3.40;;
45762;SDS011;37512;52.408;13.356;2022-09-12T22:35:02;3.00;;;2.53;;
45762;SDS011;37512;52.408;13.356;2022-09-12T22:39:04;3.78;;;3.40;;
45762;SDS011;37512;52.408;13.356;2022-09-12T22:43:06;3.22;;;2.60;;
45762;SDS011;37512;52.408;13.356;2022-09-12T22:47:09;4.28;;;3.10;;
45762;SDS011;37512;52.408;13.356;2022-09-12T22:51:10;4.57;;;3.28;;
45762;SDS011;37512;52.408;13.356;2022-09-12T22:55:11;3.05;;;2.75;;
45762;SDS011;37512;52.408;13.356;2022-09-12T22:59:13;2.97;;;2.53;;
45762;SDS011;37512;52.408;13.356;2022-09-12T23:03:15;3.55;;;2.75;;
45762;SDS011;37512;52.408;13.356;2022-09-12T23:07:18;3.45;;;2.92;;
45762;SDS011;37512;52.408;13.356;2022-09-12T23:11:19;3.17;;;2.83;;
45762;SDS011;37512;52.408;13.356;2022-09-12T23:15:22;3.78;;;2.90;;
45762;SDS011;37512;52.408;13.356;2022-09-12T23:19:23;5.45;;;3.08;;
45762;SDS011;37512;52.408;13.356;2022-09-12T23:23:25;3.28;;;2.60;;
45762;SDS011;37512;52.408;13.356;2022-09-12T23:27:27;3.67;;;2.80;;
45762;SDS011;37512;52.408;13.356;2022-09-12T23:31:29;4.63;;;3.30;;
45762;SDS011;37512;52.408;13.356;2022-09-12T23:35:32;3.85;;;2.95;;
45762;SDS011;37512;52.408;13.356;2022-09-12T23:39:34;4.45;;;3.25;;
45762;SDS011;37512;52.408;13.356;2022-09-12T23:43:36;3.63;;;3.15;;
45762;SDS011;37512;52.408;13.356;2022-09-12T23:47:38;3.65;;;3.08;;
45762;SDS011;37512;52.408;13.356;2022-09-12T23:51:39;3.58;;;3.08;;
45762;SDS011;37512;52.408;13.356;2022-09-12T23:55:40;3.83;;;2.85;;
45762;SDS011;37512;52.408;13.356;2022-09-12T23:59:42;4.38;;;3.10;;
